sensor_id;sensor_type;location;lat;lon;timestamp;temperature;humidity
15357;DHT22;7778;48.792;9.260;2023-08-21T00:01:35;25.10;99.90
15357;DHT22;7778;48.792;9.260;2023-08-21T00:04:20;25.10;99.90
15357;DHT22;7778;48.792;9.260;2023-08-21T00:07:05;25.00;99.90
15357;DHT22;7778;48.792;9.260;2023-08-21T00:09:53;24.90;99.90
15357;DHT22;7778;48.792;9.260;2023-08-21T00:12:38;24.90;99.90
15357;DHT22;7778;48.792;9.260;2023-08-21T00:15:24;24.90;99.90
15357;DHT22;7778;48.792;9.260;2023-08-21T00:18:11;24.90;99.90
15357;DHT22;7778;48.792;9.260;2023-08-21T00:20:56;24.90;99.90
15357;DHT22;7778;48.792;9.260;2023-08-21T00:23:42;24.90;99.90
15357;DHT22;7778;48.792;9.260;2023-08-21T00:26:27;24.90;99.90
15357;DHT22;7778;48.792;9.260;2023-08-21T00:29:13;24.90;99.90
15357;DHT22;7778;48.792;9.260;2023-08-21T00:31:58;24.80;99.90
15357;DHT22;7778;48.792;9.260;2023-08-21T00:34:45;24.80;99.90
15357;DHT22;7778;48.792;9.260;2023-08-21T00:37:30;24.90;99.90
15357;DHT22;7778;48.792;9.260;2023-08-21T00:40:16;24.80;99.90
15357;DHT22;7778;48.792;9.260;2023-08-21T00:43:03;24.70;99.90
15357;DHT22;7778;48.792;9.260;2023-08-21T00:45:50;24.70;99.90
15357;DHT22;7778;48.792;9.260;2023-08-21T00:48:36;24.70;99.90
15357;DHT22;7778;48.792;9.260;2023-08-21T00:51:24;24.60;99.90
15357;DHT22;7778;48.792;9.260;2023-08-21T00:54:10;24.50;99.90
15357;DHT22;7778;48.792;9.260;2023-08-21T00:56:56;24.40;99.90
15357;DHT22;7778;48.792;9.260;2023-08-21T00:59:41;24.40;99.90
15357;DHT22;7778;48.792;9.260;2023-08-21T01:02:27;24.30;99.90
15357;DHT22;7778;48.792;9.260;2023-08-21T01:05:12;24.20;99.90
15357;DHT22;7778;48.792;9.260;2023-08-21T01:08:02;24.20;99.90
15357;DHT22;7778;48.792;9.260;2023-08-21T01:10:52;24.20;99.90
15357;DHT22;7778;48.792;9.260;2023-08-21T01:13:48;24.20;99.90
15357;DHT22;7778;48.792;9.260;2023-08-21T01:16:40;24.20;99.90
15357;DHT22;7778;48.792;9.260;2023-08-21T01:19:31;24.20;99.90
15357;DHT22;7778;48.792;9.260;2023-08-21T01:22:25;24.10;99.90
15357;DHT22;7778;48.792;9.260;2023-08-21T01:25:13;24.10;99.90
15357;DHT22;7778;48.792;9.260;2023-08-21T01:28:00;24.10;99.90
15357;DHT22;7778;48.792;9.260;2023-08-21T01:30:48;24.10;99.90
15357;DHT22;7778;48.792;9.260;2023-08-21T01:33:42;24.00;99.90
15357;DHT22;7778;48.792;9.260;2023-08-21T01:36:31;24.00;99.90
15357;DHT22;7778;48.792;9.260;2023-08-21T01:39:17;24.00;99.90
15357;DHT22;7778;48.792;9.260;2023-08-21T01:42:05;24.00;99.90
15357;DHT22;7778;48.792;9.260;2023-08-21T01:44:51;24.00;99.90
15357;DHT22;7778;48.792;9.260;2023-08-21T01:47:37;23.90;99.90
15357;DHT22;7778;48.792;9.260;2023-08-21T01:50:22;23.90;99.90
15357;DHT22;7778;48.792;9.260;2023-08-21T01:53:08;23.80;99.90
15357;DHT22;7778;48.792;9.260;2023-08-21T01:55:53;23.80;99.90
15357;DHT22;7778;48.792;9.260;2023-08-21T01:58:40;23.80;99.90
15357;DHT22;7778;48.792;9.260;2023-08-21T02:01:26;23.70;99.90
15357;DHT22;7778;48.792;9.260;2023-08-21T02:04:11;23.80;99.90
15357;DHT22;7778;48.792;9.260;2023-08-21T02:06:57;23.70;99.90
15357;DHT22;7778;48.792;9.260;2023-08-21T02:09:42;23.70;99.90
15357;DHT22;7778;48.792;9.260;2023-08-21T02:12:28;23.60;99.90
15357;DHT22;7778;48.792;9.260;2023-08-21T02:15:15;23.70;99.90
15357;DHT22;7778;48.792;9.260;2023-08-21T02:18:01;23.60;99.90
15357;DHT22;7778;48.792;9.260;2023-08-21T02:20:47;23.60;99.90
15357;DHT22;7778;48.792;9.260;2023-08-21T02:23:33;23.60;99.90
15357;DHT22;7778;48.792;9.260;2023-08-21T02:26:19;23.50;99.90
15357;DHT22;7778;48.792;9.260;2023-08-21T02:29:04;23.50;99.90
15357;DHT22;7778;48.792;9.260;2023-08-21T02:31:51;23.40;99.90
15357;DHT22;7778;48.792;9.260;2023-08-21T02:34:37;23.40;99.90
15357;DHT22;7778;48.792;9.260;2023-08-21T02:37:23;23.40;99.90
15357;DHT22;7778;48.792;9.260;2023-08-21T02:40:09;23.30;99.90
15357;DHT22;7778;48.792;9.260;2023-08-21T02:42:55;23.30;99.90
15357;DHT22;7778;48.792;9.260;2023-08-21T02:45:40;23.30;99.90
15357;DHT22;7778;48.792;9.260;2023-08-21T02:48:28;23.30;99.90
15357;DHT22;7778;48.792;9.260;2023-08-21T02:51:13;23.20;99.90
15357;DHT22;7778;48.792;9.260;2023-08-21T02:53:59;23.20;99.90
15357;DHT22;7778;48.792;9.260;2023-08-21T02:56:44;23.10;99.90
15357;DHT22;7778;48.792;9.260;2023-08-21T02:59:29;23.10;99.90
15357;DHT22;7778;48.792;9.260;2023-08-21T03:02:15;23.10;99.90
15357;DHT22;7778;48.792;9.260;2023-08-21T03:05:01;23.10;99.90
15357;DHT22;7778;48.792;9.260;2023-08-21T03:07:47;23.00;99.90
15357;DHT22;7778;48.792;9.260;2023-08-21T03:10:33;23.00;99.90
15357;DHT22;7778;48.792;9.260;2023-08-21T03:13:21;23.00;99.90
15357;DHT22;7778;48.792;9.260;2023-08-21T03:16:06;23.00;99.90
15357;DHT22;7778;48.792;9.260;2023-08-21T03:18:56;23.00;99.90
15357;DHT22;7778;48.792;9.260;2023-08-21T03:21:43;22.90;99.90
15357;DHT22;7778;48.792;9.260;2023-08-21T03:24:29;23.00;99.90
15357;DHT22;7778;48.792;9.260;2023-08-21T03:27:15;22.90;99.90
15357;DHT22;7778;48.792;9.260;2023-08-21T03:30:01;22.90;99.90
15357;DHT22;7778;48.792;9.260;2023-08-21T03:32:47;22.80;99.90
15357;DHT22;7778;48.792;9.260;2023-08-21T03:35:32;22.80;99.90
15357;DHT22;7778;48.792;9.260;2023-08-21T03:38:19;22.80;99.90
15357;DHT22;7778;48.792;9.260;2023-08-21T03:41:05;22.70;99.90
15357;DHT22;7778;48.792;9.260;2023-08-21T03:43:50;22.70;99.90
15357;DHT22;7778;48.792;9.260;2023-08-21T03:46:36;22.60;99.90
15357;DHT22;7778;48.792;9.260;2023-08-21T03:49:21;22.60;99.90
15357;DHT22;7778;48.792;9.260;2023-08-21T03:52:07;22.60;99.90
15357;DHT22;7778;48.792;9.260;2023-08-21T03:54:54;22.60;99.90
15357;DHT22;7778;48.792;9.260;2023-08-21T03:57:39;22.60;99.90
15357;DHT22;7778;48.792;9.260;2023-08-21T04:00:25;22.60;99.90
15357;DHT22;7778;48.792;9.260;2023-08-21T04:03:10;22.60;99.90
15357;DHT22;7778;48.792;9.260;2023-08-21T04:05:55;22.60;99.90
15357;DHT22;7778;48.792;9.260;2023-08-21T04:08:41;22.60;99.90
15357;DHT22;7778;48.792;9.260;2023-08-21T04:11:28;22.60;99.90
15357;DHT22;7778;48.792;9.260;2023-08-21T04:14:13;22.50;99.90
15357;DHT22;7778;48.792;9.260;2023-08-21T04:16:59;22.50;99.90
15357;DHT22;7778;48.792;9.260;2023-08-21T04:19:45;22.50;99.90
15357;DHT22;7778;48.792;9.260;2023-08-21T04:22:33;22.50;99.90
15357;DHT22;7778;48.792;9.260;2023-08-21T04:25:19;22.50;99.90
15357;DHT22;7778;48.792;9.260;2023-08-21T04:28:05;22.50;99.90
15357;DHT22;7778;48.792;9.260;2023-08-21T04:30:52;22.60;99.90
15357;DHT22;7778;48.792;9.260;2023-08-21T04:33:37;22.50;99.90
15357;DHT22;7778;48.792;9.260;2023-08-21T04:36:23;22.50;99.90
15357;DHT22;7778;48.792;9.260;2023-08-21T04:39:09;22.50;99.90
15357;DHT22;7778;48.792;9.260;2023-08-21T04:41:55;22.50;99.90
15357;DHT22;7778;48.792;9.260;2023-08-21T04:44:42;22.50;99.90
15357;DHT22;7778;48.792;9.260;2023-08-21T04:47:27;22.60;99.90
15357;DHT22;7778;48.792;9.260;2023-08-21T04:50:13;22.60;99.90
15357;DHT22;7778;48.792;9.260;2023-08-21T04:52:59;22.60;99.90
15357;DHT22;7778;48.792;9.260;2023-08-21T04:55:45;22.60;99.90
15357;DHT22;7778;48.792;9.260;2023-08-21T04:58:30;22.70;99.90
15357;DHT22;7778;48.792;9.260;2023-08-21T05:01:18;22.70;99.90
15357;DHT22;7778;48.792;9.260;2023-08-21T05:04:03;22.80;99.90
15357;DHT22;7778;48.792;9.260;2023-08-21T05:06:49;22.80;99.90
15357;DHT22;7778;48.792;9.260;2023-08-21T05:09:34;22.90;99.90
15357;DHT22;7778;48.792;9.260;2023-08-21T05:12:20;22.90;99.90
15357;DHT22;7778;48.792;9.260;2023-08-21T05:15:06;23.00;99.90
15357;DHT22;7778;48.792;9.260;2023-08-21T05:17:54;23.20;99.90
15357;DHT22;7778;48.792;9.260;2023-08-21T05:20:39;23.20;99.90
15357;DHT22;7778;48.792;9.260;2023-08-21T05:23:25;23.30;99.90
15357;DHT22;7778;48.792;9.260;2023-08-21T05:26:11;23.30;99.90
15357;DHT22;7778;48.792;9.260;2023-08-21T05:28:56;23.40;99.90
15357;DHT22;7778;48.792;9.260;2023-08-21T05:31:42;23.50;99.90
15357;DHT22;7778;48.792;9.260;2023-08-21T05:34:29;23.50;99.90
15357;DHT22;7778;48.792;9.260;2023-08-21T05:37:15;23.60;99.90
15357;DHT22;7778;48.792;9.260;2023-08-21T05:40:01;23.50;99.90
15357;DHT22;7778;48.792;9.260;2023-08-21T05:42:47;23.20;99.90
15357;DHT22;7778;48.792;9.260;2023-08-21T05:45:33;23.00;99.90
15357;DHT22;7778;48.792;9.260;2023-08-21T05:48:18;22.80;99.90
15357;DHT22;7778;48.792;9.260;2023-08-21T05:51:05;22.80;99.90
15357;DHT22;7778;48.792;9.260;2023-08-21T05:53:51;22.80;99.90
15357;DHT22;7778;48.792;9.260;2023-08-21T05:56:36;23.00;99.90
15357;DHT22;7778;48.792;9.260;2023-08-21T05:59:30;23.40;99.90
15357;DHT22;7778;48.792;9.260;2023-08-21T06:02:18;23.90;99.90
15357;DHT22;7778;48.792;9.260;2023-08-21T06:05:05;25.10;99.90
15357;DHT22;7778;48.792;9.260;2023-08-21T06:07:59;26.60;99.90
15357;DHT22;7778;48.792;9.260;2023-08-21T06:10:51;28.30;99.90
15357;DHT22;7778;48.792;9.260;2023-08-21T06:13:37;29.50;99.90
15357;DHT22;7778;48.792;9.260;2023-08-21T06:16:23;30.60;99.90
15357;DHT22;7778;48.792;9.260;2023-08-21T06:19:12;31.10;99.90
15357;DHT22;7778;48.792;9.260;2023-08-21T06:22:13;31.50;99.90
15357;DHT22;7778;48.792;9.260;2023-08-21T06:25:05;32.60;99.90
15357;DHT22;7778;48.792;9.260;2023-08-21T06:28:00;33.30;99.90
15357;DHT22;7778;48.792;9.260;2023-08-21T06:30:47;32.30;99.90
15357;DHT22;7778;48.792;9.260;2023-08-21T06:33:36;32.40;99.90
15357;DHT22;7778;48.792;9.260;2023-08-21T06:36:22;33.70;99.90
15357;DHT22;7778;48.792;9.260;2023-08-21T06:39:08;34.60;99.90
15357;DHT22;7778;48.792;9.260;2023-08-21T06:41:57;34.00;99.90
15357;DHT22;7778;48.792;9.260;2023-08-21T06:44:46;34.00;99.90
15357;DHT22;7778;48.792;9.260;2023-08-21T06:47:35;34.30;99.90
15357;DHT22;7778;48.792;9.260;2023-08-21T06:50:24;34.10;99.90
15357;DHT22;7778;48.792;9.260;2023-08-21T06:53:10;33.70;99.90
15357;DHT22;7778;48.792;9.260;2023-08-21T06:55:57;33.10;99.90
15357;DHT22;7778;48.792;9.260;2023-08-21T06:58:45;31.30;99.90
15357;DHT22;7778;48.792;9.260;2023-08-21T07:01:37;31.50;99.90
15357;DHT22;7778;48.792;9.260;2023-08-21T07:04:24;32.50;99.90
15357;DHT22;7778;48.792;9.260;2023-08-21T07:07:09;32.10;99.90
15357;DHT22;7778;48.792;9.260;2023-08-21T07:09:56;32.60;99.90
15357;DHT22;7778;48.792;9.260;2023-08-21T07:12:50;33.20;99.90
15357;DHT22;7778;48.792;9.260;2023-08-21T07:15:41;33.90;99.90
15357;DHT22;7778;48.792;9.260;2023-08-21T07:18:33;34.10;99.90
15357;DHT22;7778;48.792;9.260;2023-08-21T07:21:26;34.00;99.90
15357;DHT22;7778;48.792;9.260;2023-08-21T07:24:19;34.10;99.90
15357;DHT22;7778;48.792;9.260;2023-08-21T07:27:14;34.30;99.90
15357;DHT22;7778;48.792;9.260;2023-08-21T07:30:07;35.00;99.90
15357;DHT22;7778;48.792;9.260;2023-08-21T07:33:04;35.90;99.90
15357;DHT22;7778;48.792;9.260;2023-08-21T07:35:57;36.10;99.90
15357;DHT22;7778;48.792;9.260;2023-08-21T07:38:45;36.30;99.90
15357;DHT22;7778;48.792;9.260;2023-08-21T07:41:35;36.40;99.90
15357;DHT22;7778;48.792;9.260;2023-08-21T07:44:22;37.00;99.90
15357;DHT22;7778;48.792;9.260;2023-08-21T07:47:09;36.60;99.90
15357;DHT22;7778;48.792;9.260;2023-08-21T07:49:57;36.70;99.90
15357;DHT22;7778;48.792;9.260;2023-08-21T07:52:43;37.70;99.90
15357;DHT22;7778;48.792;9.260;2023-08-21T07:55:29;38.00;99.90
15357;DHT22;7778;48.792;9.260;2023-08-21T07:58:18;38.30;99.90
15357;DHT22;7778;48.792;9.260;2023-08-21T08:01:04;38.40;99.90
15357;DHT22;7778;48.792;9.260;2023-08-21T08:03:54;37.70;99.90
15357;DHT22;7778;48.792;9.260;2023-08-21T08:06:52;37.80;99.90
15357;DHT22;7778;48.792;9.260;2023-08-21T08:09:37;38.60;99.90
15357;DHT22;7778;48.792;9.260;2023-08-21T08:12:24;38.80;99.90
15357;DHT22;7778;48.792;9.260;2023-08-21T08:15:12;39.60;99.90
15357;DHT22;7778;48.792;9.260;2023-08-21T08:17:58;40.40;99.20
15357;DHT22;7778;48.792;9.260;2023-08-21T08:20:44;40.10;96.00
15357;DHT22;7778;48.792;9.260;2023-08-21T08:23:33;39.30;96.70
15357;DHT22;7778;48.792;9.260;2023-08-21T08:26:22;37.80;97.80
15357;DHT22;7778;48.792;9.260;2023-08-21T08:29:09;37.40;99.70
15357;DHT22;7778;48.792;9.260;2023-08-21T08:32:05;37.80;99.60
15357;DHT22;7778;48.792;9.260;2023-08-21T08:35:18;38.40;98.20
15357;DHT22;7778;48.792;9.260;2023-08-21T08:38:13;39.20;98.20
15357;DHT22;7778;48.792;9.260;2023-08-21T08:41:11;38.90;96.80
15357;DHT22;7778;48.792;9.260;2023-08-21T08:44:04;38.30;97.10
15357;DHT22;7778;48.792;9.260;2023-08-21T08:47:06;36.20;99.90
15357;DHT22;7778;48.792;9.260;2023-08-21T08:50:06;35.60;99.90
15357;DHT22;7778;48.792;9.260;2023-08-21T08:52:52;37.10;99.90
15357;DHT22;7778;48.792;9.260;2023-08-21T08:55:43;38.40;99.90
15357;DHT22;7778;48.792;9.260;2023-08-21T08:58:46;39.70;98.90
15357;DHT22;7778;48.792;9.260;2023-08-21T09:01:44;40.10;95.50
15357;DHT22;7778;48.792;9.260;2023-08-21T09:04:34;40.50;93.70
15357;DHT22;7778;48.792;9.260;2023-08-21T09:07:21;39.40;94.60
15357;DHT22;7778;48.792;9.260;2023-08-21T09:10:13;39.40;95.00
15357;DHT22;7778;48.792;9.260;2023-08-21T09:13:04;39.30;95.50
15357;DHT22;7778;48.792;9.260;2023-08-21T09:19:33;38.90;92.80
15357;DHT22;7778;48.792;9.260;2023-08-21T09:22:22;39.40;95.90
15357;DHT22;7778;48.792;9.260;2023-08-21T09:25:17;40.40;94.50
15357;DHT22;7778;48.792;9.260;2023-08-21T09:28:09;41.20;92.00
15357;DHT22;7778;48.792;9.260;2023-08-21T09:30:55;40.70;92.10
15357;DHT22;7778;48.792;9.260;2023-08-21T09:33:43;40.50;92.80
15357;DHT22;7778;48.792;9.260;2023-08-21T09:36:32;41.10;91.90
15357;DHT22;7778;48.792;9.260;2023-08-21T09:39:19;41.40;90.80
15357;DHT22;7778;48.792;9.260;2023-08-21T09:42:07;41.70;89.90
15357;DHT22;7778;48.792;9.260;2023-08-21T09:44:56;41.50;90.70
15357;DHT22;7778;48.792;9.260;2023-08-21T09:47:42;41.20;87.60
15357;DHT22;7778;48.792;9.260;2023-08-21T09:50:29;40.40;84.60
15357;DHT22;7778;48.792;9.260;2023-08-21T09:53:16;39.10;90.30
15357;DHT22;7778;48.792;9.260;2023-08-21T09:56:03;37.70;89.30
15357;DHT22;7778;48.792;9.260;2023-08-21T09:58:50;37.50;89.60
15357;DHT22;7778;48.792;9.260;2023-08-21T10:01:40;38.30;91.20
15357;DHT22;7778;48.792;9.260;2023-08-21T10:04:28;39.20;89.40
15357;DHT22;7778;48.792;9.260;2023-08-21T10:07:16;39.60;89.60
15357;DHT22;7778;48.792;9.260;2023-08-21T10:10:05;40.30;84.90
15357;DHT22;7778;48.792;9.260;2023-08-21T10:12:51;40.70;85.40
15357;DHT22;7778;48.792;9.260;2023-08-21T10:15:38;40.90;82.80
15357;DHT22;7778;48.792;9.260;2023-08-21T10:18:30;40.90;84.60
15357;DHT22;7778;48.792;9.260;2023-08-21T10:21:19;40.20;81.70
15357;DHT22;7778;48.792;9.260;2023-08-21T10:24:06;40.60;83.00
15357;DHT22;7778;48.792;9.260;2023-08-21T10:26:53;40.60;83.20
15357;DHT22;7778;48.792;9.260;2023-08-21T10:29:39;41.00;83.30
15357;DHT22;7778;48.792;9.260;2023-08-21T10:32:24;41.50;79.80
15357;DHT22;7778;48.792;9.260;2023-08-21T10:35:14;41.00;82.40
15357;DHT22;7778;48.792;9.260;2023-08-21T10:38:08;40.80;78.40
15357;DHT22;7778;48.792;9.260;2023-08-21T10:41:06;39.50;79.70
15357;DHT22;7778;48.792;9.260;2023-08-21T10:43:53;39.10;81.50
15357;DHT22;7778;48.792;9.260;2023-08-21T10:46:52;38.90;83.80
15357;DHT22;7778;48.792;9.260;2023-08-21T10:49:38;38.80;81.30
15357;DHT22;7778;48.792;9.260;2023-08-21T10:52:24;39.50;82.20
15357;DHT22;7778;48.792;9.260;2023-08-21T10:55:11;39.70;82.70
15357;DHT22;7778;48.792;9.260;2023-08-21T10:57:58;40.10;82.40
15357;DHT22;7778;48.792;9.260;2023-08-21T11:00:44;40.00;82.10
15357;DHT22;7778;48.792;9.260;2023-08-21T11:03:30;40.10;81.60
15357;DHT22;7778;48.792;9.260;2023-08-21T11:06:19;39.50;77.80
15357;DHT22;7778;48.792;9.260;2023-08-21T11:09:04;38.20;80.00
15357;DHT22;7778;48.792;9.260;2023-08-21T11:11:50;37.40;82.30
15357;DHT22;7778;48.792;9.260;2023-08-21T11:14:37;37.10;85.90
15357;DHT22;7778;48.792;9.260;2023-08-21T11:17:24;37.30;85.10
15357;DHT22;7778;48.792;9.260;2023-08-21T11:20:11;37.30;86.60
15357;DHT22;7778;48.792;9.260;2023-08-21T11:22:57;36.90;86.60
15357;DHT22;7778;48.792;9.260;2023-08-21T11:25:43;36.60;88.10
15357;DHT22;7778;48.792;9.260;2023-08-21T11:28:29;36.80;90.60
15357;DHT22;7778;48.792;9.260;2023-08-21T11:31:16;36.90;87.60
15357;DHT22;7778;48.792;9.260;2023-08-21T11:34:03;37.10;89.60
15357;DHT22;7778;48.792;9.260;2023-08-21T11:36:49;37.20;86.40
15357;DHT22;7778;48.792;9.260;2023-08-21T11:39:45;37.10;89.20
15357;DHT22;7778;48.792;9.260;2023-08-21T11:42:33;37.10;89.30
15357;DHT22;7778;48.792;9.260;2023-08-21T11:45:20;36.90;86.60
15357;DHT22;7778;48.792;9.260;2023-08-21T11:48:07;36.90;88.50
15357;DHT22;7778;48.792;9.260;2023-08-21T11:50:54;36.90;89.90
15357;DHT22;7778;48.792;9.260;2023-08-21T11:53:41;36.70;90.60
15357;DHT22;7778;48.792;9.260;2023-08-21T11:56:28;36.50;89.20
15357;DHT22;7778;48.792;9.260;2023-08-21T11:59:21;36.50;90.90
15357;DHT22;7778;48.792;9.260;2023-08-21T12:02:14;36.20;88.70
15357;DHT22;7778;48.792;9.260;2023-08-21T12:05:04;35.10;90.20
15357;DHT22;7778;48.792;9.260;2023-08-21T12:07:52;34.90;92.70
15357;DHT22;7778;48.792;9.260;2023-08-21T12:10:38;34.90;92.70
15357;DHT22;7778;48.792;9.260;2023-08-21T12:13:24;34.60;91.60
15357;DHT22;7778;48.792;9.260;2023-08-21T12:16:09;34.10;91.40
15357;DHT22;7778;48.792;9.260;2023-08-21T12:18:55;34.10;92.40
15357;DHT22;7778;48.792;9.260;2023-08-21T12:21:41;33.90;91.90
15357;DHT22;7778;48.792;9.260;2023-08-21T12:24:28;33.60;93.70
15357;DHT22;7778;48.792;9.260;2023-08-21T12:27:14;33.40;94.60
15357;DHT22;7778;48.792;9.260;2023-08-21T12:30:00;33.60;94.90
15357;DHT22;7778;48.792;9.260;2023-08-21T12:32:46;33.60;95.30
15357;DHT22;7778;48.792;9.260;2023-08-21T12:35:32;33.80;95.60
15357;DHT22;7778;48.792;9.260;2023-08-21T12:38:17;33.90;94.90
15357;DHT22;7778;48.792;9.260;2023-08-21T12:41:05;34.30;95.30
15357;DHT22;7778;48.792;9.260;2023-08-21T12:43:51;34.50;95.10
15357;DHT22;7778;48.792;9.260;2023-08-21T12:46:37;35.00;95.40
15357;DHT22;7778;48.792;9.260;2023-08-21T12:49:22;35.40;93.70
15357;DHT22;7778;48.792;9.260;2023-08-21T12:52:08;35.20;92.80
15357;DHT22;7778;48.792;9.260;2023-08-21T12:54:56;34.50;92.00
15357;DHT22;7778;48.792;9.260;2023-08-21T12:57:44;34.00;93.00
15357;DHT22;7778;48.792;9.260;2023-08-21T13:00:30;33.60;95.00
15357;DHT22;7778;48.792;9.260;2023-08-21T13:03:16;33.60;95.00
15357;DHT22;7778;48.792;9.260;2023-08-21T13:06:02;33.40;94.90
15357;DHT22;7778;48.792;9.260;2023-08-21T13:08:47;33.00;96.30
15357;DHT22;7778;48.792;9.260;2023-08-21T13:11:33;32.80;95.80
15357;DHT22;7778;48.792;9.260;2023-08-21T13:14:20;32.70;96.10
15357;DHT22;7778;48.792;9.260;2023-08-21T13:17:05;32.50;95.80
15357;DHT22;7778;48.792;9.260;2023-08-21T13:19:51;32.40;95.40
15357;DHT22;7778;48.792;9.260;2023-08-21T13:22:46;32.40;96.50
15357;DHT22;7778;48.792;9.260;2023-08-21T13:25:34;32.40;98.70
15357;DHT22;7778;48.792;9.260;2023-08-21T13:28:20;32.60;98.50
15357;DHT22;7778;48.792;9.260;2023-08-21T13:31:07;32.80;99.30
15357;DHT22;7778;48.792;9.260;2023-08-21T13:33:53;32.90;98.70
15357;DHT22;7778;48.792;9.260;2023-08-21T13:36:39;32.80;97.80
15357;DHT22;7778;48.792;9.260;2023-08-21T13:39:24;32.80;98.60
15357;DHT22;7778;48.792;9.260;2023-08-21T13:42:10;32.90;97.10
15357;DHT22;7778;48.792;9.260;2023-08-21T13:44:56;33.00;97.80
15357;DHT22;7778;48.792;9.260;2023-08-21T13:47:44;33.00;98.00
15357;DHT22;7778;48.792;9.260;2023-08-21T13:50:31;33.30;96.20
15357;DHT22;7778;48.792;9.260;2023-08-21T13:53:17;33.50;97.40
15357;DHT22;7778;48.792;9.260;2023-08-21T13:56:03;33.70;97.10
15357;DHT22;7778;48.792;9.260;2023-08-21T13:58:49;33.70;95.00
15357;DHT22;7778;48.792;9.260;2023-08-21T14:01:34;33.80;96.20
15357;DHT22;7778;48.792;9.260;2023-08-21T14:04:21;33.70;96.90
15357;DHT22;7778;48.792;9.260;2023-08-21T14:07:07;33.60;96.30
15357;DHT22;7778;48.792;9.260;2023-08-21T14:09:52;33.40;98.00
15357;DHT22;7778;48.792;9.260;2023-08-21T14:12:38;33.40;98.10
15357;DHT22;7778;48.792;9.260;2023-08-21T14:15:24;33.20;97.20
15357;DHT22;7778;48.792;9.260;2023-08-21T14:18:10;33.30;96.20
15357;DHT22;7778;48.792;9.260;2023-08-21T14:20:57;33.10;95.20
15357;DHT22;7778;48.792;9.260;2023-08-21T14:23:42;32.80;96.70
15357;DHT22;7778;48.792;9.260;2023-08-21T14:26:28;33.00;97.70
15357;DHT22;7778;48.792;9.260;2023-08-21T14:29:13;33.20;97.50
15357;DHT22;7778;48.792;9.260;2023-08-21T14:31:59;33.20;97.40
15357;DHT22;7778;48.792;9.260;2023-08-21T14:34:44;33.20;97.80
15357;DHT22;7778;48.792;9.260;2023-08-21T14:37:32;33.30;98.10
15357;DHT22;7778;48.792;9.260;2023-08-21T14:40:18;33.30;98.10
15357;DHT22;7778;48.792;9.260;2023-08-21T14:43:04;33.30;97.10
15357;DHT22;7778;48.792;9.260;2023-08-21T14:45:49;33.20;96.30
15357;DHT22;7778;48.792;9.260;2023-08-21T14:48:35;33.20;98.10
15357;DHT22;7778;48.792;9.260;2023-08-21T14:51:20;33.00;97.00
15357;DHT22;7778;48.792;9.260;2023-08-21T14:54:07;33.00;97.20
15357;DHT22;7778;48.792;9.260;2023-08-21T14:56:53;33.00;97.50
15357;DHT22;7778;48.792;9.260;2023-08-21T14:59:38;33.00;97.20
15357;DHT22;7778;48.792;9.260;2023-08-21T15:02:24;33.10;96.90
15357;DHT22;7778;48.792;9.260;2023-08-21T15:05:10;33.00;97.00
15357;DHT22;7778;48.792;9.260;2023-08-21T15:07:56;33.00;98.00
15357;DHT22;7778;48.792;9.260;2023-08-21T15:10:45;33.00;96.80
15357;DHT22;7778;48.792;9.260;2023-08-21T15:13:31;32.90;97.10
15357;DHT22;7778;48.792;9.260;2023-08-21T15:16:16;32.90;97.30
15357;DHT22;7778;48.792;9.260;2023-08-21T15:19:02;33.00;97.70
15357;DHT22;7778;48.792;9.260;2023-08-21T15:21:48;33.00;98.30
15357;DHT22;7778;48.792;9.260;2023-08-21T15:24:33;32.90;96.30
15357;DHT22;7778;48.792;9.260;2023-08-21T15:27:20;32.90;97.20
15357;DHT22;7778;48.792;9.260;2023-08-21T15:30:07;33.00;97.30
15357;DHT22;7778;48.792;9.260;2023-08-21T15:32:53;33.00;96.60
15357;DHT22;7778;48.792;9.260;2023-08-21T15:35:39;33.00;98.00
15357;DHT22;7778;48.792;9.260;2023-08-21T15:38:24;32.80;98.00
15357;DHT22;7778;48.792;9.260;2023-08-21T15:41:10;32.90;98.40
15357;DHT22;7778;48.792;9.260;2023-08-21T15:43:57;32.80;98.10
15357;DHT22;7778;48.792;9.260;2023-08-21T15:46:43;32.60;97.90
15357;DHT22;7778;48.792;9.260;2023-08-21T15:49:28;32.60;98.00
15357;DHT22;7778;48.792;9.260;2023-08-21T15:52:14;32.60;98.00
15357;DHT22;7778;48.792;9.260;2023-08-21T15:54:59;32.40;99.20
15357;DHT22;7778;48.792;9.260;2023-08-21T15:57:45;32.40;98.80
15357;DHT22;7778;48.792;9.260;2023-08-21T16:00:31;32.40;99.40
15357;DHT22;7778;48.792;9.260;2023-08-21T16:03:17;32.30;99.10
15357;DHT22;7778;48.792;9.260;2023-08-21T16:06:03;32.20;98.90
15357;DHT22;7778;48.792;9.260;2023-08-21T16:08:49;32.20;99.60
15357;DHT22;7778;48.792;9.260;2023-08-21T16:11:34;32.10;99.90
15357;DHT22;7778;48.792;9.260;2023-08-21T16:14:20;32.00;99.80
15357;DHT22;7778;48.792;9.260;2023-08-21T16:17:07;32.00;99.90
15357;DHT22;7778;48.792;9.260;2023-08-21T16:19:53;31.90;99.60
15357;DHT22;7778;48.792;9.260;2023-08-21T16:22:39;31.90;99.90
15357;DHT22;7778;48.792;9.260;2023-08-21T16:25:24;31.90;99.90
15357;DHT22;7778;48.792;9.260;2023-08-21T16:28:10;31.90;99.90
15357;DHT22;7778;48.792;9.260;2023-08-21T16:30:56;31.90;99.90
15357;DHT22;7778;48.792;9.260;2023-08-21T16:33:43;31.90;99.90
15357;DHT22;7778;48.792;9.260;2023-08-21T16:36:28;31.80;99.90
15357;DHT22;7778;48.792;9.260;2023-08-21T16:39:14;31.70;99.90
15357;DHT22;7778;48.792;9.260;2023-08-21T16:42:00;31.70;99.90
15357;DHT22;7778;48.792;9.260;2023-08-21T16:44:46;31.70;99.90
15357;DHT22;7778;48.792;9.260;2023-08-21T16:47:31;31.70;99.90
15357;DHT22;7778;48.792;9.260;2023-08-21T16:50:19;31.70;99.90
15357;DHT22;7778;48.792;9.260;2023-08-21T16:53:04;31.70;99.90
15357;DHT22;7778;48.792;9.260;2023-08-21T16:55:50;31.70;99.90
15357;DHT22;7778;48.792;9.260;2023-08-21T16:58:35;31.50;99.90
15357;DHT22;7778;48.792;9.260;2023-08-21T17:01:21;31.40;99.90
15357;DHT22;7778;48.792;9.260;2023-08-21T17:04:06;31.30;99.90
15357;DHT22;7778;48.792;9.260;2023-08-21T17:06:53;31.30;99.90
15357;DHT22;7778;48.792;9.260;2023-08-21T17:09:39;31.20;99.90
15357;DHT22;7778;48.792;9.260;2023-08-21T17:12:25;31.30;99.90
15357;DHT22;7778;48.792;9.260;2023-08-21T17:15:10;31.20;99.90
15357;DHT22;7778;48.792;9.260;2023-08-21T17:17:59;31.20;99.90
15357;DHT22;7778;48.792;9.260;2023-08-21T17:20:45;31.20;99.90
15357;DHT22;7778;48.792;9.260;2023-08-21T17:23:32;31.20;99.90
15357;DHT22;7778;48.792;9.260;2023-08-21T17:26:18;31.10;99.90
15357;DHT22;7778;48.792;9.260;2023-08-21T17:29:04;31.10;99.90
15357;DHT22;7778;48.792;9.260;2023-08-21T17:31:50;31.00;99.90
15357;DHT22;7778;48.792;9.260;2023-08-21T17:34:36;30.80;99.90
15357;DHT22;7778;48.792;9.260;2023-08-21T17:37:22;30.80;99.90
15357;DHT22;7778;48.792;9.260;2023-08-21T17:40:09;30.70;99.90
15357;DHT22;7778;48.792;9.260;2023-08-21T17:42:56;30.70;99.90
15357;DHT22;7778;48.792;9.260;2023-08-21T17:45:41;30.60;99.90
15357;DHT22;7778;48.792;9.260;2023-08-21T17:48:30;30.50;99.90
15357;DHT22;7778;48.792;9.260;2023-08-21T17:51:16;30.40;99.90
15357;DHT22;7778;48.792;9.260;2023-08-21T17:54:03;30.40;99.90
15357;DHT22;7778;48.792;9.260;2023-08-21T17:56:50;30.40;99.90